createdAt,value
2022-09-01T00:00:53.698Z,15.58
2022-09-01T00:01:53.703Z,15.57
2022-09-01T00:02:53.766Z,15.59
2022-09-01T00:03:53.703Z,15.44
2022-09-01T00:04:53.645Z,15.52
2022-09-01T00:05:53.638Z,15.39
2022-09-01T00:06:53.634Z,15.46
2022-09-01T00:07:53.626Z,15.47
2022-09-01T00:08:53.599Z,15.46
2022-09-01T00:09:53.589Z,15.44
2022-09-01T00:10:53.577Z,15.49
2022-09-01T00:11:53.567Z,15.42
2022-09-01T00:12:53.606Z,15.43
2022-09-01T00:13:53.541Z,15.46
2022-09-01T00:14:53.529Z,15.40
2022-09-01T00:15:53.565Z,15.42
2022-09-01T00:16:53.513Z,15.40
2022-09-01T00:17:53.519Z,15.43
2022-09-01T00:18:53.497Z,15.42
2022-09-01T00:19:53.476Z,15.47
2022-09-01T00:20:53.463Z,15.35
2022-09-01T00:21:53.456Z,15.35
2022-09-01T00:22:53.442Z,15.35
2022-09-01T00:23:53.443Z,15.40
2022-09-01T00:24:53.427Z,15.36
2022-09-01T00:25:53.406Z,15.40
2022-09-01T00:26:53.395Z,15.36
2022-09-01T00:27:53.383Z,15.43
2022-09-01T00:28:53.389Z,15.35
2022-09-01T00:29:53.363Z,15.37
2022-09-01T00:30:53.432Z,15.35
2022-09-01T00:31:53.339Z,15.25
2022-09-01T00:32:53.325Z,15.29
2022-09-01T00:33:53.321Z,15.25
2022-09-01T00:34:53.314Z,15.28
2022-09-01T00:35:53.291Z,15.22
2022-09-01T00:36:53.299Z,15.22
2022-09-01T00:37:53.271Z,15.18
2022-09-01T00:38:53.259Z,15.18
2022-09-01T00:39:53.257Z,15.29
2022-09-01T00:40:53.328Z,15.18
2022-09-01T00:41:53.240Z,15.22
2022-09-01T00:42:53.211Z,15.22
2022-09-01T00:43:53.202Z,15.22
2022-09-01T00:44:53.210Z,15.21
2022-09-01T00:45:53.255Z,15.21
2022-09-01T00:46:55.367Z,15.21
2022-09-01T00:47:53.174Z,15.19
2022-09-01T00:48:53.144Z,15.19
2022-09-01T00:49:53.156Z,15.19
2022-09-01T00:50:54.647Z,15.07
2022-09-01T00:51:53.109Z,15.19
2022-09-01T00:52:53.120Z,15.15
2022-09-01T00:53:53.094Z,15.15
2022-09-01T00:54:53.080Z,15.10
2022-09-01T00:55:53.077Z,15.11
2022-09-01T00:56:57.391Z,15.11
2022-09-01T00:57:53.044Z,15.15
2022-09-01T00:58:53.041Z,15.03
2022-09-01T00:59:53.021Z,15.04
2022-09-01T01:00:53.029Z,14.99
2022-09-01T01:01:53.039Z,14.99
2022-09-01T01:02:53.032Z,14.99
2022-09-01T01:03:52.979Z,14.99
2022-09-01T01:04:53.018Z,14.94
2022-09-01T01:05:52.950Z,15.00
2022-09-01T01:06:52.952Z,14.86
2022-09-01T01:07:52.927Z,14.94
2022-09-01T01:08:52.916Z,14.89
2022-09-01T01:09:52.907Z,14.89
2022-09-01T01:10:52.928Z,14.92
2022-09-01T01:11:52.884Z,14.81
2022-09-01T01:12:52.865Z,14.82
2022-09-01T01:13:52.858Z,14.84
2022-09-01T01:14:52.861Z,14.73
2022-09-01T01:15:52.852Z,14.79
2022-09-01T01:16:52.914Z,14.69
2022-09-01T01:17:52.829Z,14.68
2022-09-01T01:18:52.805Z,14.58
2022-09-01T01:19:52.790Z,14.68
2022-09-01T01:20:52.791Z,14.63
2022-09-01T01:21:52.771Z,14.62
2022-09-01T01:22:52.784Z,14.55
2022-09-01T01:23:52.745Z,14.47
2022-09-01T01:24:52.731Z,14.51
2022-09-01T01:25:52.733Z,14.60
2022-09-01T01:26:52.713Z,14.51
2022-09-01T01:27:53.449Z,14.48
2022-09-01T01:28:52.692Z,14.50
2022-09-01T01:29:52.676Z,14.48
2022-09-01T01:30:52.874Z,14.53
2022-09-01T01:31:52.653Z,14.47
2022-09-01T01:32:52.643Z,14.47
2022-09-01T01:33:52.637Z,14.50
2022-09-01T01:34:52.625Z,14.48
2022-09-01T01:35:52.644Z,14.47
2022-09-01T01:36:52.598Z,14.47
2022-09-01T01:37:52.585Z,14.40
2022-09-01T01:38:52.571Z,14.36
2022-09-01T01:39:52.560Z,14.35
2022-09-01T01:40:52.581Z,14.33
2022-09-01T01:41:52.555Z,14.36
2022-09-01T01:42:52.524Z,14.29
2022-09-01T01:43:52.517Z,14.35
2022-09-01T01:44:52.501Z,14.35
2022-09-01T01:45:53.558Z,14.30
2022-09-01T01:46:52.517Z,14.36
2022-09-01T01:47:52.475Z,14.36
2022-09-01T01:48:52.521Z,14.30
2022-09-01T01:49:52.449Z,14.33
2022-09-01T01:50:52.439Z,14.36
2022-09-01T01:51:52.441Z,14.33
2022-09-01T01:52:55.182Z,14.29
2022-09-01T01:53:53.406Z,14.26
2022-09-01T01:54:52.391Z,14.22
2022-09-01T01:55:52.380Z,14.26
2022-09-01T01:56:52.371Z,14.23
2022-09-01T01:57:52.367Z,14.26
2022-09-01T01:58:52.398Z,14.26
2022-09-01T01:59:52.339Z,14.33
2022-09-01T02:00:52.321Z,14.32
2022-09-01T02:01:52.359Z,14.33
2022-09-01T02:02:52.454Z,14.40
2022-09-01T02:03:52.302Z,14.32
2022-09-01T02:04:52.304Z,14.35
2022-09-01T02:05:52.272Z,14.33
2022-09-01T02:06:52.260Z,14.44
2022-09-01T02:07:52.246Z,14.33
2022-09-01T02:08:52.254Z,14.33
2022-09-01T02:09:52.237Z,14.29
2022-09-01T02:10:52.210Z,14.32
2022-09-01T02:11:52.200Z,14.35
2022-09-01T02:12:52.185Z,14.35
2022-09-01T02:13:52.181Z,14.30
2022-09-01T02:14:52.191Z,14.30
2022-09-01T02:15:52.162Z,14.33
2022-09-01T02:16:52.290Z,14.23
2022-09-01T02:17:52.133Z,14.30
2022-09-01T02:18:52.143Z,14.30
2022-09-01T02:19:52.114Z,14.28
2022-09-01T02:20:59.572Z,14.23
2022-09-01T02:21:52.086Z,14.25
2022-09-01T02:22:52.071Z,14.30
2022-09-01T02:23:52.063Z,14.30
2022-09-01T02:24:52.059Z,14.26
2022-09-01T02:26:14.512Z,14.28
2022-09-01T02:26:53.042Z,14.28
2022-09-01T02:27:52.018Z,14.28
2022-09-01T02:28:55.261Z,14.26
2022-09-01T02:29:52.008Z,14.26
2022-09-01T02:30:52.085Z,14.26
2022-09-01T02:31:51.973Z,14.26
2022-09-01T02:32:51.978Z,14.26
2022-09-01T02:33:51.981Z,14.25
2022-09-01T02:34:51.936Z,14.22
2022-09-01T02:35:51.936Z,14.14
2022-09-01T02:36:51.923Z,14.18
2022-09-01T02:37:51.942Z,14.08
2022-09-01T02:38:53.428Z,14.07
2022-09-01T02:39:51.888Z,14.03
2022-09-01T02:40:51.891Z,13.99
2022-09-01T02:41:51.866Z,13.99
2022-09-01T02:42:51.853Z,13.92
2022-09-01T02:43:51.871Z,13.92
2022-09-01T02:44:51.836Z,13.95
2022-09-01T02:45:51.874Z,13.96
2022-09-01T02:46:51.808Z,13.89
2022-09-01T02:47:51.799Z,13.86
2022-09-01T02:48:51.779Z,13.85
2022-09-01T02:49:51.781Z,13.87
2022-09-01T02:50:51.756Z,13.83
2022-09-01T02:51:51.764Z,13.90
2022-09-01T02:52:51.737Z,13.92
2022-09-01T02:53:51.749Z,13.79
2022-09-01T02:54:51.735Z,13.90
2022-09-01T02:55:51.712Z,13.92
2022-09-01T02:56:51.690Z,13.78
2022-09-01T02:57:51.680Z,13.83
2022-09-01T02:58:51.675Z,13.81
2022-09-01T02:59:51.689Z,13.78
2022-09-01T03:00:51.672Z,13.71
2022-09-01T03:01:51.637Z,13.70
2022-09-01T03:02:51.623Z,13.70
2022-09-01T03:03:51.614Z,13.68
2022-09-01T03:04:51.663Z,13.65
2022-09-01T03:05:51.593Z,13.68
2022-09-01T03:06:51.582Z,13.65
2022-09-01T03:07:51.567Z,13.63
2022-09-01T03:08:51.556Z,13.68
2022-09-01T03:09:51.549Z,13.62
2022-09-01T03:10:51.552Z,13.67
2022-09-01T03:11:51.555Z,13.60
2022-09-01T03:12:51.519Z,13.54
2022-09-01T03:13:51.501Z,13.57
2022-09-01T03:14:51.491Z,13.54
2022-09-01T03:15:51.486Z,13.53
2022-09-01T03:16:51.578Z,13.50
2022-09-01T03:17:51.454Z,13.49
2022-09-01T03:18:51.461Z,13.56
2022-09-01T03:19:51.432Z,13.50
2022-09-01T03:20:51.425Z,13.46
2022-09-01T03:21:51.432Z,13.54
2022-09-01T03:22:51.401Z,13.54
2022-09-01T03:23:51.389Z,13.54
2022-09-01T03:24:51.376Z,13.47
2022-09-01T03:25:51.401Z,13.46
2022-09-01T03:26:51.376Z,13.49
2022-09-01T03:27:51.360Z,13.46
2022-09-01T03:28:51.334Z,13.50
2022-09-01T03:29:51.324Z,13.39
2022-09-01T03:30:51.305Z,13.42
2022-09-01T03:31:51.408Z,13.42
2022-09-01T03:32:51.289Z,13.37
2022-09-01T03:33:51.271Z,13.33
2022-09-01T03:34:51.263Z,13.28
2022-09-01T03:35:51.282Z,13.25
2022-09-01T03:36:51.251Z,13.16
2022-09-01T03:37:51.240Z,13.16
2022-09-01T03:38:51.225Z,13.16
2022-09-01T03:39:51.212Z,13.18
2022-09-01T03:40:52.199Z,13.28
2022-09-01T03:41:51.184Z,13.31
2022-09-01T03:42:51.211Z,13.20
2022-09-01T03:43:51.158Z,13.16
2022-09-01T03:44:51.153Z,13.25
2022-09-01T03:45:51.197Z,13.23
2022-09-01T03:46:51.136Z,13.23
2022-09-01T03:47:51.116Z,13.23
2022-09-01T03:48:51.118Z,13.22
2022-09-01T03:49:51.113Z,13.19
2022-09-01T03:50:51.084Z,13.15
2022-09-01T03:51:51.075Z,13.15
2022-09-01T03:52:51.060Z,13.12
2022-09-01T03:53:51.065Z,13.12
2022-09-01T03:54:51.043Z,13.15
2022-09-01T03:55:51.041Z,13.13
2022-09-01T03:56:51.018Z,13.12
2022-09-01T03:57:51.004Z,13.12
2022-09-01T03:58:51.019Z,13.08
2022-09-01T03:59:50.981Z,13.16
2022-09-01T04:00:51.022Z,13.13
2022-09-01T04:01:51.004Z,12.97
2022-09-01T04:02:56.197Z,13.05
2022-09-01T04:03:51.966Z,13.01
2022-09-01T04:04:50.927Z,13.08
2022-09-01T04:05:50.916Z,13.08
2022-09-01T04:06:50.927Z,13.04
2022-09-01T04:07:50.890Z,13.03
2022-09-01T04:08:50.883Z,13.04
2022-09-01T04:09:50.877Z,13.03
2022-09-01T04:10:52.598Z,12.95
2022-09-01T04:11:50.857Z,13.04
2022-09-01T04:12:50.897Z,13.01
2022-09-01T04:13:50.842Z,12.98
2022-09-01T04:14:50.816Z,12.97
2022-09-01T04:15:50.801Z,12.97
2022-09-01T04:16:50.856Z,12.97
2022-09-01T04:17:50.790Z,12.97
2022-09-01T04:18:50.771Z,12.98
2022-09-01T04:19:50.766Z,12.95
2022-09-01T04:20:50.747Z,12.95
2022-09-01T04:21:50.783Z,12.97
2022-09-01T04:22:50.763Z,12.98
2022-09-01T04:23:50.730Z,12.94
2022-09-01T04:24:50.723Z,12.90
2022-09-01T04:25:50.685Z,12.87
2022-09-01T04:26:50.680Z,12.91
2022-09-01T04:27:50.664Z,12.90
2022-09-01T04:28:50.658Z,12.93
2022-09-01T04:29:50.669Z,12.85
2022-09-01T04:30:51.956Z,12.93
2022-09-01T04:31:50.701Z,12.87
2022-09-01T04:32:50.626Z,12.80
2022-09-01T04:33:50.594Z,12.79
2022-09-01T04:34:50.601Z,12.82
2022-09-01T04:35:50.587Z,12.76
2022-09-01T04:36:50.566Z,12.80
2022-09-01T04:37:50.551Z,12.72
2022-09-01T04:38:50.560Z,12.80
2022-09-01T04:39:55.360Z,12.67
2022-09-01T04:40:51.576Z,12.68
2022-09-01T04:41:50.508Z,12.58
2022-09-01T04:42:50.496Z,12.57
2022-09-01T04:43:50.493Z,12.61
2022-09-01T04:44:50.475Z,12.57
2022-09-01T04:45:50.503Z,12.49
2022-09-01T04:46:50.479Z,12.39
2022-09-01T04:47:50.441Z,12.45
2022-09-01T04:48:50.432Z,12.43
2022-09-01T04:49:50.428Z,12.42
2022-09-01T04:50:50.420Z,12.45
2022-09-01T04:51:53.728Z,12.47
2022-09-01T04:52:50.384Z,12.45
2022-09-01T04:53:50.368Z,12.42
2022-09-01T04:54:50.367Z,12.40
2022-09-01T04:55:50.380Z,12.40
2022-09-01T04:56:50.366Z,12.36
2022-09-01T04:57:50.329Z,12.37
2022-09-01T04:58:50.315Z,12.32
2022-09-01T04:59:50.304Z,12.35
2022-09-01T05:00:50.343Z,12.37
2022-09-01T05:01:50.474Z,12.35
2022-09-01T05:02:50.273Z,12.36
2022-09-01T05:03:50.258Z,12.29
2022-09-01T05:04:50.250Z,12.36
2022-09-01T05:05:50.259Z,12.32
2022-09-01T05:06:50.238Z,12.29
2022-09-01T05:07:50.213Z,12.29
2022-09-01T05:08:50.208Z,12.29
2022-09-01T05:09:50.191Z,12.36
2022-09-01T05:10:50.186Z,12.32
2022-09-01T05:11:50.208Z,12.40
2022-09-01T05:12:50.161Z,12.32
2022-09-01T05:13:50.145Z,12.32
2022-09-01T05:14:50.137Z,12.37
2022-09-01T05:15:50.259Z,12.35
2022-09-01T05:16:50.235Z,12.37
2022-09-01T05:17:50.103Z,12.31
2022-09-01T05:18:50.090Z,12.32
2022-09-01T05:19:50.078Z,12.32
2022-09-01T05:20:50.068Z,12.46
2022-09-01T05:21:50.072Z,12.42
2022-09-01T05:22:50.046Z,12.46
2022-09-01T05:23:50.028Z,12.39
2022-09-01T05:24:50.025Z,12.37
2022-09-01T05:25:50.031Z,12.49
2022-09-01T05:26:50.018Z,12.45
2022-09-01T05:27:50.057Z,12.42
2022-09-01T05:28:49.982Z,12.40
2022-09-01T05:29:49.963Z,12.42
2022-09-01T05:30:49.957Z,12.43
2022-09-01T05:31:50.515Z,12.42
2022-09-01T05:32:49.950Z,12.35
2022-09-01T05:33:49.919Z,12.32
2022-09-01T05:34:49.926Z,12.42
2022-09-01T05:35:49.897Z,12.42
2022-09-01T05:36:49.897Z,12.37
2022-09-01T05:37:49.872Z,12.46
2022-09-01T05:38:49.865Z,12.45
2022-09-01T05:39:49.854Z,12.42
2022-09-01T05:40:49.891Z,12.49
2022-09-01T05:41:49.851Z,12.53
2022-09-01T05:42:49.831Z,12.47
2022-09-01T05:43:49.837Z,12.55
2022-09-01T05:44:49.820Z,12.60
2022-09-01T05:46:05.713Z,12.57
2022-09-01T05:46:50.893Z,12.60
2022-09-01T05:47:49.772Z,12.60
2022-09-01T05:48:49.755Z,12.67
2022-09-01T05:49:49.810Z,12.67
2022-09-01T05:50:49.729Z,12.68
2022-09-01T05:51:50.923Z,12.83
2022-09-01T05:52:49.723Z,12.79
2022-09-01T05:53:49.698Z,12.87
2022-09-01T05:54:49.946Z,12.95
2022-09-01T05:55:49.676Z,13.09
2022-09-01T05:56:49.661Z,13.23
2022-09-01T05:57:49.663Z,13.72
2022-09-01T05:59:50.640Z,14.35
2022-09-01T06:00:49.619Z,14.63
2022-09-01T06:01:50.680Z,14.70
2022-09-01T06:02:49.750Z,14.99
2022-09-01T06:03:49.584Z,15.11
2022-09-01T06:04:49.601Z,15.19
2022-09-01T06:05:49.560Z,15.39
2022-09-01T06:07:06.728Z,15.47
2022-09-01T06:07:50.587Z,15.55
2022-09-01T06:08:49.527Z,15.55
2022-09-01T06:09:49.513Z,15.64
2022-09-01T06:10:49.503Z,15.75
2022-09-01T06:11:49.491Z,15.94
2022-09-01T06:12:49.514Z,16.02
2022-09-01T06:13:53.503Z,16.33
2022-09-01T06:14:50.461Z,16.41
2022-09-01T06:15:49.491Z,16.57
2022-09-01T06:16:49.443Z,16.83
2022-09-01T06:17:49.445Z,17.02
2022-09-01T06:18:49.416Z,17.27
2022-09-01T06:19:49.399Z,17.60
2022-09-01T06:20:49.389Z,17.87
2022-09-01T06:21:49.375Z,18.07
2022-09-01T06:22:49.376Z,18.38
2022-09-01T06:23:49.353Z,18.44
2022-09-01T06:24:54.488Z,18.53
2022-09-01T06:25:50.334Z,18.60
2022-09-01T06:26:49.326Z,18.77
2022-09-01T06:27:49.320Z,18.93
2022-09-01T06:28:49.299Z,19.02
2022-09-01T06:29:49.283Z,19.29
2022-09-01T06:30:49.280Z,19.39
2022-09-01T06:31:49.320Z,19.26
2022-09-01T06:32:49.285Z,19.26
2022-09-01T06:33:49.269Z,19.31
2022-09-01T06:34:49.261Z,19.33
2022-09-01T06:35:49.222Z,19.18
2022-09-01T06:36:49.212Z,19.04
2022-09-01T06:37:49.214Z,19.21
2022-09-01T06:38:49.197Z,19.31
2022-09-01T06:39:49.194Z,19.56
2022-09-01T06:40:50.994Z,19.82
2022-09-01T06:41:49.153Z,19.85
2022-09-01T06:42:49.153Z,19.84
2022-09-01T06:43:51.500Z,19.99
2022-09-01T06:44:49.335Z,20.11
2022-09-01T06:45:49.394Z,20.34
2022-09-01T06:46:49.879Z,20.70
2022-09-01T06:47:49.275Z,20.99
2022-09-01T06:48:49.629Z,21.29
2022-09-01T06:49:51.121Z,21.48
2022-09-01T06:51:50.212Z,21.96
2022-09-01T06:53:52.977Z,22.06
2022-09-01T06:54:49.310Z,21.93
2022-09-01T06:55:49.706Z,21.93
2022-09-01T06:56:51.393Z,21.69
2022-09-01T06:58:06.558Z,21.43
2022-09-01T06:58:54.569Z,21.51
2022-09-01T06:59:49.585Z,21.57
2022-09-01T07:00:50.553Z,21.82
2022-09-01T07:02:01.507Z,21.82
2022-09-01T07:02:52.327Z,21.72
2022-09-01T08:21:02.342Z,22.20
2022-09-01T08:22:02.533Z,22.30
2022-09-01T08:23:02.312Z,22.33
2022-09-01T08:24:02.296Z,22.33
2022-09-01T08:25:02.295Z,22.41
2022-09-01T08:26:02.282Z,22.33
2022-09-01T08:27:02.265Z,22.25
2022-09-01T08:28:02.275Z,22.20
2022-09-01T08:29:02.249Z,22.33
2022-09-01T08:30:02.274Z,22.32
2022-09-01T08:31:02.282Z,22.41
2022-09-01T08:32:02.282Z,22.47
2022-09-01T08:33:10.152Z,22.57
2022-09-01T08:34:03.184Z,22.70
2022-09-01T08:35:02.177Z,22.72
2022-09-01T08:36:02.162Z,22.83
2022-09-01T08:37:02.179Z,22.93
2022-09-01T08:38:02.149Z,22.96
2022-09-01T08:39:02.126Z,22.99
2022-09-01T08:40:04.094Z,23.15
2022-09-01T08:41:02.198Z,23.06
2022-09-01T08:42:02.094Z,23.13
2022-09-01T08:43:02.107Z,23.21
2022-09-01T08:44:02.072Z,23.21
2022-09-01T08:45:02.066Z,23.43
2022-09-01T08:46:02.095Z,23.28
2022-09-01T08:47:02.059Z,23.43
2022-09-01T08:48:37.012Z,23.41
2022-09-01T08:49:24.623Z,23.54
2022-09-01T08:50:05.988Z,23.61
2022-09-01T08:51:02.307Z,23.63
2022-09-01T08:52:01.997Z,23.68
2022-09-01T08:53:09.483Z,23.71
2022-09-01T08:54:02.971Z,23.77
2022-09-01T08:55:01.950Z,23.93
2022-09-01T08:56:01.949Z,23.99
2022-09-01T08:57:01.926Z,24.03
2022-09-01T08:58:02.254Z,24.02
2022-09-01T08:59:02.955Z,24.03
2022-09-01T09:00:01.932Z,24.08
2022-09-01T09:01:01.888Z,24.03
2022-09-01T09:02:01.935Z,24.06
2022-09-01T09:03:01.985Z,24.01
2022-09-01T09:04:01.858Z,24.13
2022-09-01T09:05:02.006Z,24.08
2022-09-01T09:06:01.836Z,23.93
2022-09-01T09:07:01.809Z,23.98
2022-09-01T09:08:09.042Z,24.18
2022-09-01T09:09:02.824Z,24.14
2022-09-01T09:10:01.780Z,24.18
2022-09-01T09:11:01.767Z,24.20
2022-09-01T09:12:01.770Z,24.08
2022-09-01T09:13:01.759Z,24.08
2022-09-01T09:14:01.756Z,24.13
2022-09-01T09:15:01.741Z,24.18
2022-09-01T09:16:09.050Z,24.28
2022-09-01T09:17:02.707Z,24.23
2022-09-01T09:18:01.691Z,24.36
2022-09-01T09:19:01.678Z,24.42
2022-09-01T09:20:01.689Z,24.45
2022-09-01T09:21:01.666Z,24.43
2022-09-01T09:22:02.001Z,24.48
2022-09-01T09:23:03.836Z,24.51
2022-09-01T09:24:01.644Z,24.47
2022-09-01T09:25:01.632Z,24.50
2022-09-01T09:26:01.607Z,24.43
2022-09-01T09:27:01.588Z,24.38
2022-09-01T09:28:01.611Z,24.43
2022-09-01T09:29:01.582Z,24.39
2022-09-01T09:30:07.322Z,24.28
2022-09-01T09:31:02.584Z,24.14
2022-09-01T09:32:01.969Z,24.16
2022-09-01T09:34:02.513Z,24.20
2022-09-01T09:35:01.520Z,24.23
2022-09-01T09:36:01.493Z,24.39
2022-09-01T09:37:01.491Z,24.47
2022-09-01T09:38:01.474Z,24.68
2022-09-01T09:39:01.482Z,24.84
2022-09-01T09:40:01.466Z,24.50
2022-09-01T09:41:19.004Z,24.43
2022-09-01T09:42:02.441Z,24.60
2022-09-01T09:43:01.918Z,24.66
2022-09-01T09:44:01.417Z,24.74
2022-09-01T09:45:01.429Z,24.77
2022-09-01T09:46:01.422Z,24.86
2022-09-01T09:47:01.459Z,24.92
2022-09-01T09:48:01.365Z,24.93
2022-09-01T09:49:01.352Z,24.98
2022-09-01T09:50:01.357Z,24.91
2022-09-01T09:51:01.342Z,24.65
2022-09-01T09:52:01.323Z,24.58
2022-09-01T09:53:01.310Z,24.13
2022-09-01T09:54:01.296Z,23.80
2022-09-01T09:55:01.284Z,23.54
2022-09-01T09:56:01.294Z,23.44
2022-09-01T09:57:01.258Z,23.25
2022-09-01T09:58:01.248Z,23.23
2022-09-01T09:59:01.243Z,23.44
2022-09-01T10:00:01.763Z,23.62
2022-09-01T10:01:01.286Z,23.65
2022-09-01T10:02:01.204Z,23.84
2022-09-01T10:03:01.200Z,24.13
2022-09-01T10:04:01.264Z,24.48
2022-09-01T10:05:01.197Z,24.69
2022-09-01T10:06:01.161Z,24.89
2022-09-01T10:07:01.159Z,25.28
2022-09-01T10:08:01.142Z,25.41
2022-09-01T10:09:01.126Z,25.51
2022-09-01T10:10:01.110Z,25.46
2022-09-01T10:11:01.105Z,25.23
2022-09-01T10:12:01.102Z,25.10
2022-09-01T10:13:02.180Z,25.14
2022-09-01T10:14:01.098Z,25.01
2022-09-01T10:15:04.661Z,25.01
2022-09-01T10:16:03.584Z,24.91
2022-09-01T10:17:01.673Z,25.01
2022-09-01T10:18:30.675Z,25.16
2022-09-01T10:19:02.016Z,25.31
2022-09-01T10:20:01.007Z,25.41
2022-09-01T10:21:00.991Z,25.51
2022-09-01T10:22:00.993Z,25.48
2022-09-01T10:23:00.971Z,25.70
2022-09-01T10:24:17.668Z,25.87
2022-09-01T10:25:01.968Z,25.84
2022-09-01T10:26:00.948Z,25.55
2022-09-01T10:27:00.938Z,25.38
2022-09-01T10:28:00.909Z,25.44
2022-09-01T10:29:00.924Z,25.53
2022-09-01T10:31:01.965Z,25.73
2022-09-01T10:32:30.740Z,25.81
2022-09-01T10:33:07.975Z,25.81
2022-09-01T10:34:01.865Z,25.70
2022-09-01T10:35:00.835Z,25.59
2022-09-01T10:36:00.852Z,25.36
2022-09-01T10:37:00.829Z,25.22
2022-09-01T10:38:00.808Z,25.17
2022-09-01T10:39:06.189Z,25.17
2022-09-01T10:40:01.952Z,25.22
2022-09-01T10:41:00.816Z,25.18
2022-09-01T10:42:01.106Z,25.11
2022-09-01T10:43:00.969Z,25.13
2022-09-01T10:44:02.397Z,24.91
2022-09-01T10:45:00.726Z,24.66
2022-09-01T10:46:05.692Z,24.36
2022-09-01T10:47:04.018Z,24.38
2022-09-01T10:48:02.049Z,24.51
2022-09-01T10:49:04.406Z,24.61
2022-09-01T10:50:01.480Z,24.69
2022-09-01T10:51:00.877Z,24.95
2022-09-01T10:52:08.559Z,25.13
2022-09-01T10:53:01.645Z,25.22
2022-09-01T10:54:03.663Z,25.36
2022-09-01T10:55:00.623Z,25.46
2022-09-01T10:56:01.988Z,25.21
2022-09-01T10:57:03.931Z,24.99
2022-09-01T10:58:09.229Z,24.73
2022-09-01T11:00:01.886Z,24.85
2022-09-01T11:01:34.883Z,25.16
2022-09-01T11:03:29.899Z,25.54
2022-09-01T11:04:01.644Z,25.72
2022-09-01T11:05:00.752Z,25.78
2022-09-01T11:06:12.072Z,25.73
2022-09-01T11:07:16.885Z,25.51
2022-09-01T11:08:09.151Z,25.40
2022-09-01T11:09:01.484Z,25.48
2022-09-01T11:10:10.858Z,25.29
2022-09-01T11:11:01.438Z,25.41
2022-09-01T11:12:00.426Z,25.26
2022-09-01T11:13:00.423Z,25.21
2022-09-01T11:14:00.420Z,25.21
2022-09-01T11:15:00.387Z,24.96
2022-09-01T11:16:00.707Z,24.76
2022-09-01T11:17:00.472Z,24.53
2022-09-01T11:18:00.380Z,24.45
2022-09-01T11:19:00.343Z,24.38
2022-09-01T11:20:00.337Z,24.51
2022-09-01T11:21:00.323Z,24.60
2022-09-01T11:22:00.322Z,24.95
2022-09-01T11:23:00.299Z,25.21
2022-09-01T11:24:00.315Z,25.41
2022-09-01T11:25:12.160Z,25.60
2022-09-01T11:27:01.267Z,25.69
2022-09-01T11:28:00.244Z,25.81
2022-09-01T11:29:00.249Z,25.80
2022-09-01T11:30:00.236Z,25.81
2022-09-01T11:31:00.214Z,25.81
2022-09-01T11:32:00.279Z,25.70
2022-09-01T11:33:00.184Z,25.51
2022-09-01T11:34:00.203Z,25.28
2022-09-01T11:35:00.167Z,25.13
2022-09-01T11:36:00.147Z,24.84
2022-09-01T11:37:00.142Z,24.51
2022-09-01T11:38:00.126Z,24.47
2022-09-01T11:39:00.134Z,24.42
2022-09-01T11:40:00.130Z,24.60
2022-09-01T11:41:00.106Z,24.80
2022-09-01T11:42:03.479Z,25.07
2022-09-01T11:43:00.077Z,25.28
2022-09-01T11:44:00.166Z,25.31
2022-09-01T11:45:00.050Z,25.26
2022-09-01T11:46:00.106Z,25.29
2022-09-01T11:47:00.026Z,25.33
2022-09-01T11:48:00.030Z,25.48
2022-09-01T11:49:00.033Z,25.68
2022-09-01T11:50:00.000Z,25.80
2022-09-01T11:50:59.983Z,26.03
2022-09-01T11:51:59.971Z,26.16
2022-09-01T11:53:04.791Z,26.21
2022-09-01T11:54:00.957Z,26.16
2022-09-01T11:54:59.958Z,26.05
2022-09-01T11:55:59.924Z,25.91
2022-09-01T11:56:59.914Z,25.72
2022-09-01T11:57:59.903Z,25.41
2022-09-01T11:58:59.904Z,25.26
2022-09-01T11:59:59.920Z,25.28
2022-09-01T12:00:59.900Z,25.21
2022-09-01T12:01:59.981Z,25.10
2022-09-01T12:03:00.060Z,24.88
2022-09-01T12:03:59.843Z,25.03
2022-09-01T12:04:59.883Z,24.96
2022-09-01T12:05:59.809Z,25.07
2022-09-01T12:06:59.857Z,25.14
2022-09-01T12:07:59.842Z,25.07
2022-09-01T12:08:59.901Z,24.88
2022-09-01T12:09:59.799Z,24.68
2022-09-01T12:10:59.758Z,24.47
2022-09-01T12:11:59.758Z,24.29
2022-09-01T12:12:59.744Z,24.32
2022-09-01T12:13:59.736Z,24.36
2022-09-01T12:15:05.729Z,24.38
2022-09-01T12:16:18.316Z,24.39
2022-09-01T12:17:00.803Z,24.47
2022-09-01T12:17:59.678Z,24.51
2022-09-01T12:18:59.668Z,24.65
2022-09-01T12:19:59.665Z,24.78
2022-09-01T12:20:59.651Z,24.98
2022-09-01T12:21:59.639Z,25.13
2022-09-01T12:22:59.624Z,25.18
2022-09-01T12:23:59.613Z,25.23
2022-09-01T12:24:59.630Z,25.21
2022-09-01T12:25:59.595Z,25.26
2022-09-01T12:26:59.598Z,25.29
2022-09-01T12:27:59.564Z,25.23
2022-09-01T12:28:59.560Z,25.43
2022-09-01T12:29:59.581Z,25.53
2022-09-01T12:30:59.569Z,25.53
2022-09-01T12:31:59.596Z,25.46
2022-09-01T12:34:00.530Z,25.54
2022-09-01T12:34:59.495Z,25.36
2022-09-01T12:35:59.721Z,25.38
2022-09-01T12:36:59.480Z,25.41
2022-09-01T12:37:59.476Z,25.47
2022-09-01T12:38:59.447Z,25.66
2022-09-01T12:39:59.435Z,25.62
2022-09-01T12:41:00.023Z,25.63
2022-09-01T12:41:59.413Z,25.70
2022-09-01T12:42:59.402Z,25.62
2022-09-01T12:43:59.390Z,25.48
2022-09-01T12:44:59.384Z,25.51
2022-09-01T12:45:59.456Z,25.68
2022-09-01T12:46:59.360Z,25.84
2022-09-01T12:47:59.347Z,25.85
2022-09-01T12:48:59.335Z,26.02
2022-09-01T12:49:59.330Z,26.03
2022-09-01T12:50:59.313Z,25.99
2022-09-01T12:52:00.786Z,26.00
2022-09-01T12:52:59.304Z,25.91
2022-09-01T12:53:59.290Z,25.91
2022-09-01T12:54:59.274Z,26.07
2022-09-01T12:55:59.329Z,26.13
2022-09-01T12:56:59.330Z,26.18
2022-09-01T12:57:59.288Z,26.15
2022-09-01T12:58:59.223Z,25.99
2022-09-01T12:59:59.224Z,25.93
2022-09-01T13:00:59.376Z,25.81
2022-09-01T13:01:59.905Z,25.81
2022-09-01T13:02:59.195Z,25.65
2022-09-01T13:03:59.200Z,25.48
2022-09-01T13:04:59.161Z,25.50
2022-09-01T13:05:59.141Z,25.33
2022-09-01T13:06:59.149Z,25.17
2022-09-01T13:07:59.153Z,25.01
2022-09-01T13:08:59.134Z,24.60
2022-09-01T13:09:59.104Z,24.48
2022-09-01T13:10:59.090Z,24.39
2022-09-01T13:12:07.315Z,24.47
2022-09-01T13:13:00.083Z,24.51
2022-09-01T13:13:59.059Z,24.57
2022-09-01T13:14:59.182Z,24.76
2022-09-01T13:15:59.068Z,24.85
2022-09-01T13:16:59.027Z,24.96
2022-09-01T13:17:59.040Z,25.13
2022-09-01T13:19:21.862Z,25.29
2022-09-01T13:20:00.048Z,25.36
2022-09-01T13:20:58.990Z,25.40
2022-09-01T13:21:58.976Z,25.41
2022-09-01T13:22:59.002Z,25.53
2022-09-01T13:23:58.949Z,25.59
2022-09-01T13:24:58.935Z,25.66
2022-09-01T13:25:58.929Z,25.72
2022-09-01T13:27:59.913Z,25.81
2022-09-01T13:28:58.905Z,25.84
2022-09-01T13:29:58.908Z,25.93
2022-09-01T13:34:21.821Z,25.78
2022-09-01T13:34:59.886Z,25.73
2022-09-01T13:35:59.140Z,25.70
2022-09-01T13:36:58.805Z,25.54
2022-09-01T13:37:58.802Z,25.68
2022-09-01T13:38:58.787Z,25.69
2022-09-01T13:39:58.778Z,25.63
2022-09-01T13:40:58.759Z,25.65
2022-09-01T13:41:58.741Z,25.83
2022-09-01T13:42:58.764Z,25.81
2022-09-01T13:43:58.727Z,25.83
2022-09-01T13:44:58.731Z,25.83
2022-09-01T13:45:59.088Z,25.77
2022-09-01T13:46:59.131Z,25.69
2022-09-01T13:49:03.240Z,25.55
2022-09-01T13:50:07.929Z,25.36
2022-09-01T13:51:18.200Z,25.23
2022-09-01T13:51:59.659Z,25.43
2022-09-01T13:52:58.652Z,25.38
2022-09-01T13:53:58.641Z,25.36
2022-09-01T13:54:58.616Z,25.47
2022-09-01T13:55:58.660Z,25.50
2022-09-01T13:56:58.581Z,25.44
2022-09-01T13:57:58.580Z,25.55
2022-09-01T13:58:58.595Z,25.54
2022-09-01T13:59:58.553Z,25.51
2022-09-01T14:00:58.588Z,25.46
2022-09-01T14:01:58.543Z,25.41
2022-09-01T14:02:58.535Z,25.40
2022-09-01T14:04:00.628Z,25.40
2022-09-01T14:04:58.567Z,25.44
2022-09-01T14:05:58.489Z,25.33
2022-09-01T14:06:58.469Z,25.40
2022-09-01T14:07:58.469Z,25.41
2022-09-01T14:08:58.462Z,25.53
2022-09-01T14:09:58.483Z,25.51
2022-09-01T14:10:58.440Z,25.35
2022-09-01T14:11:58.422Z,25.41
2022-09-01T14:12:58.400Z,25.47
2022-09-01T14:13:58.420Z,25.50
2022-09-01T14:16:18.848Z,25.66
2022-09-01T14:17:18.756Z,25.68
2022-09-01T14:18:18.732Z,25.53
2022-09-01T14:19:18.718Z,25.50
2022-09-01T14:20:18.697Z,25.55
2022-09-01T14:21:26.255Z,25.38
2022-09-01T14:22:18.659Z,25.48
2022-09-01T14:23:18.639Z,25.38
2022-09-01T14:24:18.631Z,25.16
2022-09-01T14:25:18.620Z,25.14